Time,TemperatureF,DewpointF,PressureIn,WindDirection,WindDirectionDegrees,WindSpeedMPH,WindSpeedGustMPH,Humidity,HourlyPrecipIn,Conditions,Clouds,dailyrainin,SolarRadiationWatts/m^2,SoftwareType,DateUTC
2013-07-13 00:11:00,79.0,62.0,-100.00,SSE,153,4.0,14.0,57,0.00,,,0.00,0.000000,,2013-07-13 05:11:00,
2013-07-13 00:22:00,79.0,62.0,-100.00,SSE,153,4.0,14.0,57,0.00,,,0.00,0.000000,,2013-07-13 05:22:00,
2013-07-13 00:32:00,79.0,62.0,-100.00,SSE,153,4.0,14.0,57,0.00,,,0.00,0.000000,,2013-07-13 05:32:00,
2013-07-13 00:42:00,79.0,62.0,-100.00,SSE,153,4.0,14.0,57,0.00,,,0.00,0.000000,,2013-07-13 05:42:00,
2013-07-13 01:11:00,77.0,61.0,-100.00,SSE,155,5.0,12.0,58,0.00,,,0.00,0.000000,,2013-07-13 06:11:00,
2013-07-13 01:22:00,77.0,61.0,-100.00,SSE,155,5.0,12.0,58,0.00,,,0.00,0.000000,,2013-07-13 06:22:00,
2013-07-13 01:32:00,77.0,61.0,-100.00,SSE,155,5.0,12.0,58,0.00,,,0.00,0.000000,,2013-07-13 06:32:00,
2013-07-13 01:43:00,77.0,61.0,-100.00,SSE,155,5.0,12.0,58,0.00,,,0.00,0.000000,,2013-07-13 06:43:00,
2013-07-13 02:11:00,76.0,61.0,-100.00,SSE,150,4.0,10.0,60,0.00,,,0.00,0.000000,,2013-07-13 07:11:00,
2013-07-13 02:22:00,76.0,61.0,-100.00,SSE,150,4.0,10.0,60,0.00,,,0.00,0.000000,,2013-07-13 07:22:00,
2013-07-13 02:33:00,76.0,61.0,-100.00,SSE,150,4.0,10.0,60,0.00,,,0.00,0.000000,,2013-07-13 07:33:00,
2013-07-13 02:44:00,76.0,61.0,-100.00,SSE,150,4.0,10.0,60,0.00,,,0.00,0.000000,,2013-07-13 07:44:00,
2013-07-13 03:11:00,76.0,62.0,-100.00,SSE,159,5.0,15.0,61,0.00,,,0.00,0.000000,,2013-07-13 08:11:00,
2013-07-13 03:22:00,76.0,62.0,-100.00,SSE,159,5.0,15.0,61,0.00,,,0.00,0.000000,,2013-07-13 08:22:00,
2013-07-13 03:33:00,76.0,62.0,-100.00,SSE,159,5.0,15.0,61,0.00,,,0.00,0.000000,,2013-07-13 08:33:00,
2013-07-13 03:43:00,76.0,62.0,-100.00,SSE,159,5.0,15.0,61,0.00,,,0.00,0.000000,,2013-07-13 08:43:00,
2013-07-13 04:11:00,74.0,62.0,-100.00,SSE,156,5.0,13.0,67,0.00,,,0.00,0.000000,,2013-07-13 09:11:00,
2013-07-13 04:22:00,74.0,62.0,-100.00,SSE,156,5.0,13.0,67,0.00,,,0.00,0.000000,,2013-07-13 09:22:00,
2013-07-13 04:33:00,74.0,62.0,-100.00,SSE,156,5.0,13.0,67,0.00,,,0.00,0.000000,,2013-07-13 09:33:00,
2013-07-13 04:43:00,74.0,62.0,-100.00,SSE,156,5.0,13.0,67,0.00,,,0.00,0.000000,,2013-07-13 09:43:00,
2013-07-13 05:11:00,73.0,62.0,-100.00,SE,142,4.0,10.0,68,0.00,,,0.00,0.000000,,2013-07-13 10:11:00,
2013-07-13 05:22:00,73.0,62.0,-100.00,SE,142,4.0,10.0,68,0.00,,,0.00,0.000000,,2013-07-13 10:22:00,
2013-07-13 05:32:00,73.0,62.0,-100.00,SE,142,4.0,10.0,68,0.00,,,0.00,0.000000,,2013-07-13 10:32:00,
2013-07-13 05:43:00,73.0,62.0,-100.00,SE,142,4.0,10.0,68,0.00,,,0.00,0.000000,,2013-07-13 10:43:00,
2013-07-13 06:11:00,72.0,61.0,-100.00,SSE,148,4.0,10.0,68,0.00,,,0.00,0.000000,,2013-07-13 11:11:00,
2013-07-13 06:22:00,72.0,61.0,-100.00,SSE,148,4.0,10.0,68,0.00,,,0.00,0.000000,,2013-07-13 11:22:00,
2013-07-13 06:32:00,72.0,61.0,-100.00,SSE,148,4.0,10.0,68,0.00,,,0.00,0.000000,,2013-07-13 11:32:00,
2013-07-13 06:42:00,72.0,61.0,-100.00,SSE,148,4.0,10.0,68,0.00,,,0.00,0.000000,,2013-07-13 11:42:00,
2013-07-13 07:12:00,72.0,61.0,-100.00,SSE,155,5.0,12.0,68,0.00,,,0.00,10.000000,,2013-07-13 12:12:00,
2013-07-13 07:22:00,72.0,61.0,-100.00,SSE,155,5.0,12.0,68,0.00,,,0.00,10.000000,,2013-07-13 12:22:00,
2013-07-13 07:32:00,72.0,61.0,-100.00,SSE,155,5.0,12.0,68,0.00,,,0.00,10.000000,,2013-07-13 12:32:00,
2013-07-13 07:43:00,72.0,61.0,-100.00,SSE,155,5.0,12.0,68,0.00,,,0.00,10.000000,,2013-07-13 12:43:00,
2013-07-13 08:12:00,73.0,62.0,-100.00,SSE,158,3.0,11.0,69,0.00,,,0.00,61.000000,,2013-07-13 13:12:00,
2013-07-13 08:22:00,73.0,62.0,-100.00,SSE,158,3.0,11.0,69,0.00,,,0.00,61.000000,,2013-07-13 13:22:00,
2013-07-13 08:32:00,73.0,62.0,-100.00,SSE,158,3.0,11.0,69,0.00,,,0.00,61.000000,,2013-07-13 13:32:00,
2013-07-13 08:43:00,73.0,62.0,-100.00,SSE,158,3.0,11.0,69,0.00,,,0.00,61.000000,,2013-07-13 13:43:00,
2013-07-13 09:11:00,77.0,63.0,-100.00,SSE,158,5.0,10.0,63,0.00,,,0.00,201.000000,,2013-07-13 14:11:00,
2013-07-13 09:22:00,77.0,63.0,-100.00,SSE,158,5.0,10.0,63,0.00,,,0.00,201.000000,,2013-07-13 14:22:00,
2013-07-13 09:32:00,77.0,63.0,-100.00,SSE,158,5.0,10.0,63,0.00,,,0.00,201.000000,,2013-07-13 14:32:00,
2013-07-13 09:43:00,77.0,63.0,-100.00,SSE,158,5.0,10.0,63,0.00,,,0.00,201.000000,,2013-07-13 14:43:00,
2013-07-13 10:12:00,77.0,64.0,-100.00,SSE,162,4.0,11.0,64,0.00,,,0.00,261.000000,,2013-07-13 15:12:00,
2013-07-13 10:22:00,77.0,64.0,-100.00,SSE,162,4.0,11.0,64,0.00,,,0.00,261.000000,,2013-07-13 15:22:00,
2013-07-13 10:33:00,77.0,64.0,-100.00,SSE,162,4.0,11.0,64,0.00,,,0.00,261.000000,,2013-07-13 15:33:00,
2013-07-13 10:43:00,77.0,64.0,-100.00,SSE,162,4.0,11.0,64,0.00,,,0.00,261.000000,,2013-07-13 15:43:00,
2013-07-13 11:11:00,83.0,68.0,-100.00,SSE,149,4.0,9.0,61,0.00,,,0.00,474.000000,,2013-07-13 16:11:00,
2013-07-13 11:22:00,83.0,68.0,-100.00,SSE,149,4.0,9.0,61,0.00,,,0.00,474.000000,,2013-07-13 16:22:00,
2013-07-13 11:33:00,83.0,68.0,-100.00,SSE,149,4.0,9.0,61,0.00,,,0.00,474.000000,,2013-07-13 16:33:00,
2013-07-13 11:43:00,83.0,68.0,-100.00,SSE,149,4.0,9.0,61,0.00,,,0.00,474.000000,,2013-07-13 16:43:00,
2013-07-13 12:12:00,84.0,70.0,-100.00,SSE,148,3.0,11.0,63,0.00,,,0.00,506.000000,,2013-07-13 17:12:00,
2013-07-13 12:22:00,84.0,70.0,-100.00,SSE,148,3.0,11.0,63,0.00,,,0.00,506.000000,,2013-07-13 17:22:00,
2013-07-13 12:33:00,84.0,70.0,-100.00,SSE,148,3.0,11.0,63,0.00,,,0.00,506.000000,,2013-07-13 17:33:00,
2013-07-13 12:43:00,84.0,70.0,-100.00,SSE,148,3.0,11.0,63,0.00,,,0.00,506.000000,,2013-07-13 17:43:00,
2013-07-13 13:11:00,89.0,73.0,-100.00,SSE,155,5.0,11.0,59,0.00,,,0.00,802.000000,,2013-07-13 18:11:00,
2013-07-13 13:22:00,89.0,73.0,-100.00,SSE,155,5.0,11.0,59,0.00,,,0.00,802.000000,,2013-07-13 18:22:00,
2013-07-13 13:32:00,89.0,73.0,-100.00,SSE,155,5.0,11.0,59,0.00,,,0.00,802.000000,,2013-07-13 18:32:00,
2013-07-13 13:43:00,89.0,73.0,-100.00,SSE,155,5.0,11.0,59,0.00,,,0.00,802.000000,,2013-07-13 18:43:00,
2013-07-13 14:11:00,89.0,72.0,-100.00,SSE,159,5.0,15.0,57,0.00,,,0.00,1003.000000,,2013-07-13 19:11:00,
2013-07-13 14:22:00,89.0,72.0,-100.00,SSE,159,5.0,15.0,57,0.00,,,0.00,1003.000000,,2013-07-13 19:22:00,
2013-07-13 14:32:00,89.0,72.0,-100.00,SSE,159,5.0,15.0,57,0.00,,,0.00,1003.000000,,2013-07-13 19:32:00,
2013-07-13 14:44:00,89.0,72.0,-100.00,SSE,159,5.0,15.0,57,0.00,,,0.00,1003.000000,,2013-07-13 19:44:00,
2013-07-13 15:11:00,91.0,73.0,-100.00,SSE,159,6.0,15.0,56,0.00,,,0.00,1033.000000,,2013-07-13 20:11:00,
2013-07-13 15:22:00,91.0,73.0,-100.00,SSE,159,6.0,15.0,56,0.00,,,0.00,1033.000000,,2013-07-13 20:22:00,
2013-07-13 15:33:00,91.0,73.0,-100.00,SSE,159,6.0,15.0,56,0.00,,,0.00,1033.000000,,2013-07-13 20:33:00,
2013-07-13 15:43:00,91.0,73.0,-100.00,SSE,159,6.0,15.0,56,0.00,,,0.00,1033.000000,,2013-07-13 20:43:00,
2013-07-13 16:12:00,92.0,73.0,-100.00,SSE,153,7.0,16.0,54,0.00,,,0.00,980.000000,,2013-07-13 21:12:00,
2013-07-13 16:22:00,92.0,73.0,-100.00,SSE,153,7.0,16.0,54,0.00,,,0.00,980.000000,,2013-07-13 21:22:00,
2013-07-13 16:32:00,92.0,73.0,-100.00,SSE,153,7.0,16.0,54,0.00,,,0.00,980.000000,,2013-07-13 21:32:00,
2013-07-13 16:42:00,92.0,73.0,-100.00,SSE,153,7.0,16.0,54,0.00,,,0.00,980.000000,,2013-07-13 21:42:00,
2013-07-13 17:12:00,92.0,75.0,-100.00,SE,144,5.0,14.0,58,0.00,,,0.00,826.000000,,2013-07-13 22:12:00,
2013-07-13 17:22:00,92.0,75.0,-100.00,SE,144,5.0,14.0,58,0.00,,,0.00,826.000000,,2013-07-13 22:22:00,
2013-07-13 17:32:00,92.0,75.0,-100.00,SE,144,5.0,14.0,58,0.00,,,0.00,826.000000,,2013-07-13 22:32:00,
2013-07-13 17:43:00,92.0,75.0,-100.00,SE,144,5.0,14.0,58,0.00,,,0.00,826.000000,,2013-07-13 22:43:00,
2013-07-13 18:11:00,89.0,74.0,-100.00,SSE,159,6.0,15.0,61,0.00,,,0.00,641.000000,,2013-07-13 23:11:00,
2013-07-13 18:22:00,89.0,74.0,-100.00,SSE,159,6.0,15.0,61,0.00,,,0.00,641.000000,,2013-07-13 23:22:00,
2013-07-13 18:32:00,89.0,74.0,-100.00,SSE,159,6.0,15.0,61,0.00,,,0.00,641.000000,,2013-07-13 23:32:00,
2013-07-13 18:42:00,89.0,74.0,-100.00,SSE,159,6.0,15.0,61,0.00,,,0.00,641.000000,,2013-07-13 23:42:00,
2013-07-13 19:11:00,86.0,75.0,-100.00,SE,144,4.0,11.0,70,0.00,,,-99.99,319.000000,,2013-07-14 00:11:00,
2013-07-13 19:21:00,86.0,75.0,-100.00,SE,144,4.0,11.0,70,0.00,,,-99.99,319.000000,,2013-07-14 00:21:00,
2013-07-13 19:33:00,86.0,75.0,-100.00,SE,144,4.0,11.0,70,0.00,,,-99.99,319.000000,,2013-07-14 00:33:00,
2013-07-13 19:42:00,86.0,75.0,-100.00,SE,144,4.0,11.0,70,0.00,,,-99.99,319.000000,,2013-07-14 00:42:00,
2013-07-13 20:11:00,84.0,73.0,-100.00,SE,144,4.0,13.0,69,0.00,,,0.00,174.000000,,2013-07-14 01:11:00,
2013-07-13 20:22:00,84.0,73.0,-100.00,SE,144,4.0,13.0,69,0.00,,,0.00,174.000000,,2013-07-14 01:22:00,
2013-07-13 20:32:00,84.0,73.0,-100.00,SE,144,4.0,13.0,69,0.00,,,0.00,174.000000,,2013-07-14 01:32:00,
2013-07-13 20:43:00,84.0,73.0,-100.00,SE,144,4.0,13.0,69,0.00,,,0.00,174.000000,,2013-07-14 01:43:00,
2013-07-13 21:11:00,81.0,72.0,-100.00,SE,133,5.0,10.0,74,0.00,,,0.00,29.000000,,2013-07-14 02:11:00,
2013-07-13 21:22:00,81.0,72.0,-100.00,SE,133,5.0,10.0,74,0.00,,,0.00,29.000000,,2013-07-14 02:22:00,
2013-07-13 21:32:00,81.0,72.0,-100.00,SE,133,5.0,10.0,74,0.00,,,0.00,29.000000,,2013-07-14 02:32:00,
2013-07-13 21:43:00,81.0,72.0,-100.00,SE,133,5.0,10.0,74,0.00,,,0.00,29.000000,,2013-07-14 02:43:00,
2013-07-13 22:11:00,80.0,69.0,-100.00,SSE,148,6.0,15.0,70,0.00,,,0.00,1.000000,,2013-07-14 03:11:00,
2013-07-13 22:22:00,80.0,69.0,-100.00,SSE,148,6.0,15.0,70,0.00,,,0.00,1.000000,,2013-07-14 03:22:00,
2013-07-13 22:32:00,80.0,69.0,-100.00,SSE,148,6.0,15.0,70,0.00,,,0.00,1.000000,,2013-07-14 03:32:00,
2013-07-13 22:43:00,80.0,69.0,-100.00,SSE,148,6.0,15.0,70,0.00,,,0.00,1.000000,,2013-07-14 03:43:00,
2013-07-13 23:11:00,79.0,68.0,-100.00,SSE,151,6.0,14.0,68,0.00,,,0.00,0.000000,,2013-07-14 04:11:00,
2013-07-13 23:22:00,79.0,68.0,-100.00,SSE,151,6.0,14.0,68,0.00,,,0.00,0.000000,,2013-07-14 04:22:00,
2013-07-13 23:32:00,79.0,68.0,-100.00,SSE,151,6.0,14.0,68,0.00,,,0.00,0.000000,,2013-07-14 04:32:00,
2013-07-13 23:42:00,79.0,68.0,-100.00,SSE,151,6.0,14.0,68,0.00,,,0.00,0.000000,,2013-07-14 04:42:00,